createdAt,value
2019-02-06T00:01:53.464Z,15.20
2019-02-06T00:04:20.930Z,15.77
2019-02-06T00:06:49.190Z,13.93
2019-02-06T00:09:16.698Z,14.70
2019-02-06T00:11:44.124Z,17.43
2019-02-06T00:14:11.600Z,14.03
2019-02-06T00:16:39.828Z,15.30
2019-02-06T00:19:07.294Z,16.67
2019-02-06T00:21:34.873Z,13.43
2019-02-06T00:24:02.324Z,14.13
2019-02-06T00:26:29.793Z,14.30
2019-02-06T00:28:57.253Z,11.60
2019-02-06T00:31:24.708Z,13.13
2019-02-06T00:33:52.189Z,17.17
2019-02-06T00:36:19.761Z,15.47
2019-02-06T00:38:47.320Z,13.57
2019-02-06T00:41:14.885Z,13.93
2019-02-06T00:43:42.354Z,11.37
2019-02-06T00:46:09.810Z,12.40
2019-02-06T00:48:37.277Z,15.33
2019-02-06T00:51:04.754Z,12.43
2019-02-06T00:53:33.007Z,13.83
2019-02-06T00:56:00.485Z,12.77
2019-02-06T00:58:28.713Z,11.93
2019-02-06T01:00:56.184Z,12.27
2019-02-06T01:03:23.681Z,13.40
2019-02-06T01:05:52.653Z,9.03
2019-02-06T01:08:20.130Z,11.10
2019-02-06T01:10:47.602Z,12.27
2019-02-06T01:13:15.093Z,13.83
2019-02-06T01:15:43.321Z,11.03
2019-02-06T01:18:11.658Z,14.10
2019-02-06T01:20:39.141Z,10.60
2019-02-06T01:23:06.604Z,11.23
2019-02-06T01:25:34.060Z,10.53
2019-02-06T01:28:01.528Z,10.63
2019-02-06T01:30:28.981Z,11.40
2019-02-06T01:32:56.450Z,11.80
2019-02-06T01:35:23.918Z,10.30
2019-02-06T01:37:51.378Z,10.67
2019-02-06T01:40:18.846Z,9.57
2019-02-06T01:42:46.302Z,12.43
2019-02-06T01:45:13.775Z,10.23
2019-02-06T01:47:41.233Z,10.50
2019-02-06T01:50:08.707Z,13.33
2019-02-06T01:52:36.290Z,12.07
2019-02-06T01:55:04.628Z,10.23
2019-02-06T01:57:32.099Z,11.93
2019-02-06T02:00:00.745Z,10.83
2019-02-06T02:02:29.000Z,11.07
2019-02-06T02:04:56.462Z,11.83
2019-02-06T02:07:24.737Z,9.63
2019-02-06T02:09:53.003Z,11.17
2019-02-06T02:12:20.459Z,9.90
2019-02-06T02:14:47.999Z,11.63
2019-02-06T02:17:15.454Z,15.10
2019-02-06T02:19:42.955Z,9.13
2019-02-06T02:22:10.420Z,12.63
2019-02-06T02:24:37.878Z,11.27
2019-02-06T02:27:05.370Z,11.53
2019-02-06T02:29:33.595Z,8.20
2019-02-06T02:32:01.077Z,11.97
2019-02-06T02:34:28.563Z,14.07
2019-02-06T02:36:56.112Z,12.20
2019-02-06T02:39:23.594Z,12.00
2019-02-06T02:41:51.588Z,10.20
2019-02-06T02:44:19.103Z,11.00
2019-02-06T02:46:46.598Z,9.73
2019-02-06T02:49:14.147Z,11.93
2019-02-06T02:51:44.263Z,9.20
2019-02-06T02:54:09.872Z,15.07
2019-02-06T02:56:37.338Z,13.70
2019-02-06T02:59:04.976Z,11.43
2019-02-06T03:01:39.938Z,10.90
2019-02-06T03:04:07.399Z,14.73
2019-02-06T03:06:34.876Z,14.17
2019-02-06T03:09:04.073Z,11.27
2019-02-06T03:11:32.237Z,14.37
2019-02-06T03:13:59.718Z,9.97
2019-02-06T03:16:27.181Z,15.90
2019-02-06T03:18:54.655Z,14.53
2019-02-06T03:21:22.111Z,11.10
2019-02-06T03:23:49.790Z,13.30
2019-02-06T03:26:18.030Z,11.83
2019-02-06T03:28:45.513Z,14.23
2019-02-06T03:31:13.758Z,12.40
2019-02-06T03:33:41.157Z,12.40
2019-02-06T03:36:08.717Z,12.23
2019-02-06T03:38:36.172Z,15.03
2019-02-06T03:41:03.649Z,11.57
2019-02-06T03:43:32.607Z,11.53
2019-02-06T03:46:00.078Z,14.63
2019-02-06T03:48:27.565Z,12.30
2019-02-06T03:50:55.142Z,14.80
2019-02-06T03:53:24.226Z,14.00
2019-02-06T03:55:53.122Z,11.13
2019-02-06T03:58:20.677Z,13.77
2019-02-06T04:00:48.158Z,13.43
2019-02-06T04:03:15.625Z,14.73
2019-02-06T04:05:43.869Z,13.20
2019-02-06T04:08:11.343Z,13.47
2019-02-06T04:10:39.600Z,14.13
2019-02-06T04:13:07.086Z,15.37
2019-02-06T04:15:34.551Z,15.53
2019-02-06T04:18:02.932Z,13.50
2019-02-06T04:20:31.212Z,13.40
2019-02-06T04:22:58.781Z,13.67
2019-02-06T04:25:27.049Z,15.07
2019-02-06T04:27:54.575Z,17.23
2019-02-06T04:30:22.800Z,12.93
2019-02-06T04:32:50.368Z,16.30
2019-02-06T04:35:17.926Z,15.90
2019-02-06T04:37:45.495Z,15.40
2019-02-06T04:40:16.243Z,18.60
2019-02-06T04:42:44.469Z,15.30
2019-02-06T04:45:11.962Z,15.73
2019-02-06T04:47:39.541Z,13.97
2019-02-06T04:50:07.009Z,18.83
2019-02-06T04:52:35.234Z,16.17
2019-02-06T04:55:02.826Z,18.70
2019-02-06T04:57:30.293Z,15.50
2019-02-06T04:59:57.871Z,17.17
2019-02-06T05:02:25.323Z,17.00
2019-02-06T05:04:52.884Z,16.00
2019-02-06T05:07:21.270Z,17.20
2019-02-06T05:09:48.852Z,17.97
2019-02-06T05:12:17.096Z,18.90
2019-02-06T05:14:44.551Z,15.93
2019-02-06T05:17:12.010Z,18.33
2019-02-06T05:19:39.498Z,19.67
2019-02-06T05:22:07.059Z,19.97
2019-02-06T05:24:34.519Z,20.13
2019-02-06T05:27:02.096Z,16.07
2019-02-06T05:29:30.403Z,18.30
2019-02-06T05:31:58.651Z,21.53
2019-02-06T05:34:26.132Z,18.97
2019-02-06T05:36:54.400Z,18.40
2019-02-06T05:39:21.873Z,23.73
2019-02-06T05:41:50.093Z,14.30
2019-02-06T05:44:17.568Z,24.27
2019-02-06T05:46:45.030Z,21.40
2019-02-06T05:49:12.525Z,23.73
2019-02-06T05:51:40.222Z,21.97
2019-02-06T05:54:08.574Z,22.67
2019-02-06T05:56:37.038Z,19.27
2019-02-06T05:59:04.484Z,19.30
2019-02-06T06:01:31.983Z,18.17
2019-02-06T06:03:59.449Z,19.90
2019-02-06T06:06:26.993Z,17.30
2019-02-06T06:08:54.462Z,23.57
2019-02-06T06:11:21.945Z,20.10
2019-02-06T06:13:50.200Z,18.87
2019-02-06T06:16:17.771Z,18.03
2019-02-06T06:18:45.248Z,17.70
2019-02-06T06:21:13.613Z,20.67
2019-02-06T06:23:41.068Z,21.07
2019-02-06T06:26:08.529Z,19.33
2019-02-06T06:28:36.111Z,20.67
2019-02-06T06:31:05.040Z,18.53
2019-02-06T06:33:32.546Z,20.37
2019-02-06T06:36:00.020Z,18.37
2019-02-06T06:38:27.591Z,17.57
2019-02-06T06:40:55.083Z,18.43
2019-02-06T06:43:23.325Z,20.67
2019-02-06T06:45:50.788Z,22.73
2019-02-06T06:48:18.255Z,17.57
2019-02-06T06:50:46.492Z,19.57
2019-02-06T06:53:13.966Z,21.17
2019-02-06T06:55:41.445Z,21.83
2019-02-06T06:58:09.021Z,19.62
2019-02-06T07:00:37.269Z,17.77
2019-02-06T07:03:04.743Z,20.57
2019-02-06T07:05:32.323Z,19.70
2019-02-06T07:08:09.249Z,17.73
2019-02-06T07:10:28.204Z,18.60
2019-02-06T07:12:56.427Z,17.90
2019-02-06T07:15:23.902Z,15.47
2019-02-06T07:17:51.361Z,17.80
2019-02-06T07:20:18.825Z,17.27
2019-02-06T07:22:46.398Z,17.17
2019-02-06T07:25:14.782Z,19.57
2019-02-06T07:27:42.346Z,18.77
2019-02-06T07:30:11.626Z,20.13
2019-02-06T07:32:39.208Z,20.53
2019-02-06T07:35:07.450Z,21.33
2019-02-06T07:37:34.950Z,18.17
2019-02-06T07:40:02.529Z,16.07
2019-02-06T07:42:30.811Z,16.43
2019-02-06T07:44:58.363Z,17.90
2019-02-06T07:47:25.839Z,14.67
2019-02-06T07:49:53.310Z,17.37
2019-02-06T07:52:21.569Z,16.23
2019-02-06T07:54:49.131Z,15.00
2019-02-06T07:57:16.854Z,17.47
2019-02-06T07:59:44.329Z,16.20
2019-02-06T08:02:11.833Z,16.77
2019-02-06T08:04:41.501Z,14.37
2019-02-06T08:07:06.801Z,15.60
2019-02-06T08:09:34.420Z,12.33
2019-02-06T08:12:01.799Z,14.87
2019-02-06T08:14:30.030Z,17.07
2019-02-06T08:16:58.282Z,16.73
2019-02-06T08:19:25.796Z,18.83
2019-02-06T08:21:53.340Z,14.87
2019-02-06T08:24:20.926Z,14.53
2019-02-06T08:26:48.497Z,14.60
2019-02-06T08:29:16.984Z,18.77
2019-02-06T08:31:44.454Z,16.60
2019-02-06T08:34:12.686Z,13.23
2019-02-06T08:36:40.287Z,16.30
2019-02-06T08:39:07.862Z,16.47
2019-02-06T08:41:35.403Z,16.60
2019-02-06T08:44:03.793Z,17.20
2019-02-06T08:46:32.030Z,15.37
2019-02-06T08:48:59.537Z,13.93
2019-02-06T08:51:27.098Z,13.17
2019-02-06T08:53:55.368Z,12.10
2019-02-06T08:56:22.956Z,12.67
2019-02-06T08:58:51.185Z,15.67
2019-02-06T09:01:18.653Z,14.17
2019-02-06T09:03:46.137Z,11.03
2019-02-06T09:06:13.709Z,11.93
2019-02-06T09:08:41.181Z,12.17
2019-02-06T09:11:09.444Z,12.37
2019-02-06T09:13:37.007Z,15.53
2019-02-06T09:16:04.482Z,13.17
2019-02-06T09:18:32.025Z,13.90
2019-02-06T09:20:59.506Z,12.53
2019-02-06T09:23:27.073Z,13.30
2019-02-06T09:25:57.404Z,14.93
2019-02-06T09:28:22.804Z,13.37
2019-02-06T09:30:50.368Z,13.23
2019-02-06T09:33:17.867Z,12.30
2019-02-06T09:35:46.107Z,12.90
2019-02-06T09:38:13.578Z,14.83
2019-02-06T09:40:41.143Z,15.03
2019-02-06T09:43:08.623Z,19.10
2019-02-06T09:45:36.849Z,15.17
2019-02-06T09:48:04.441Z,13.53
2019-02-06T09:50:32.021Z,18.90
2019-02-06T09:53:00.283Z,15.33
2019-02-06T09:55:27.757Z,13.77
2019-02-06T09:57:56.020Z,10.57
2019-02-06T10:00:28.905Z,13.77
2019-02-06T10:02:56.474Z,14.67
2019-02-06T10:05:24.047Z,14.57
2019-02-06T10:07:51.519Z,13.27
2019-02-06T10:10:18.977Z,14.37
2019-02-06T10:12:46.444Z,11.60
2019-02-06T10:15:16.418Z,15.17
2019-02-06T10:17:43.896Z,13.00
2019-02-06T10:20:11.368Z,13.47
2019-02-06T10:22:38.846Z,12.47
2019-02-06T10:25:06.390Z,13.43
2019-02-06T10:27:33.962Z,12.90
2019-02-06T10:30:03.852Z,11.30
2019-02-06T10:32:28.988Z,13.13
2019-02-06T10:34:56.459Z,11.20
2019-02-06T10:37:24.012Z,11.00
2019-02-06T10:39:51.623Z,13.33
2019-02-06T10:42:19.141Z,10.70
2019-02-06T10:44:46.623Z,12.10
2019-02-06T10:47:14.885Z,12.00
2019-02-06T10:49:42.351Z,12.63
2019-02-06T10:52:09.815Z,9.33
2019-02-06T10:54:37.304Z,9.47
2019-02-06T10:57:04.886Z,13.55
2019-02-06T10:59:32.350Z,11.17
2019-02-06T11:01:59.824Z,10.57
2019-02-06T11:04:27.320Z,10.93
2019-02-06T11:06:54.765Z,9.10
2019-02-06T11:09:22.238Z,9.97
2019-02-06T11:11:49.707Z,10.60
2019-02-06T11:14:17.936Z,10.97
2019-02-06T11:16:45.446Z,10.23
2019-02-06T11:19:14.418Z,7.87
2019-02-06T11:21:41.918Z,8.60
2019-02-06T11:24:09.399Z,8.80
2019-02-06T11:26:37.620Z,6.87
2019-02-06T11:29:05.103Z,8.10
2019-02-06T11:31:32.585Z,9.50
2019-02-06T11:34:00.855Z,6.43
2019-02-06T11:36:28.326Z,9.07
2019-02-06T11:38:56.594Z,6.60
2019-02-06T11:41:24.086Z,6.80
2019-02-06T11:43:52.338Z,7.03
2019-02-06T11:46:19.889Z,6.77
2019-02-06T11:48:47.350Z,8.50
2019-02-06T11:51:14.822Z,11.27
2019-02-06T11:53:42.390Z,7.63
2019-02-06T11:56:09.849Z,7.37
2019-02-06T11:58:37.322Z,7.63
2019-02-06T12:01:05.555Z,7.60
2019-02-06T12:03:33.022Z,7.30
2019-02-06T12:06:00.488Z,6.73
2019-02-06T12:08:31.060Z,6.27
2019-02-06T12:10:55.547Z,6.40
2019-02-06T12:13:23.108Z,6.20
2019-02-06T12:15:50.592Z,9.07
2019-02-06T12:18:18.842Z,7.83
2019-02-06T12:20:46.307Z,8.10
2019-02-06T12:23:13.821Z,9.57
2019-02-06T12:25:41.289Z,9.60
2019-02-06T12:28:08.741Z,9.63
2019-02-06T12:30:36.207Z,9.23
2019-02-06T12:33:04.826Z,11.35
2019-02-06T12:35:32.272Z,7.93
2019-02-06T12:37:59.770Z,9.13
2019-02-06T12:40:27.225Z,7.50
2019-02-06T12:42:54.692Z,7.50
2019-02-06T12:45:22.256Z,11.10
2019-02-06T12:47:49.843Z,9.50
2019-02-06T12:50:18.100Z,6.20
2019-02-06T12:52:46.367Z,6.83
2019-02-06T12:55:19.691Z,9.53
2019-02-06T12:57:46.630Z,8.23
2019-02-06T13:00:20.321Z,8.33
2019-02-06T13:02:47.792Z,9.33
2019-02-06T13:05:15.365Z,10.20
2019-02-06T13:07:42.918Z,8.40
2019-02-06T13:10:11.229Z,7.60
2019-02-06T13:12:39.488Z,9.57
2019-02-06T13:15:06.954Z,5.77
2019-02-06T13:17:34.425Z,8.23
2019-02-06T13:20:03.568Z,6.97
2019-02-06T13:22:31.147Z,11.13
2019-02-06T13:24:58.624Z,8.47
2019-02-06T13:27:26.190Z,11.50
2019-02-06T13:29:53.666Z,7.47
2019-02-06T13:32:21.133Z,8.10
2019-02-06T13:34:48.684Z,9.53
2019-02-06T13:37:16.257Z,8.80
2019-02-06T13:39:44.395Z,10.43
2019-02-06T13:42:11.872Z,7.80
2019-02-06T13:44:41.517Z,7.37
2019-02-06T13:47:06.906Z,9.83
2019-02-06T13:49:34.477Z,8.17
2019-02-06T13:52:01.936Z,8.77
2019-02-06T13:54:29.388Z,8.30
2019-02-06T13:56:56.874Z,8.90
2019-02-06T13:59:25.136Z,7.53
2019-02-06T14:01:52.642Z,9.67
2019-02-06T14:04:20.093Z,11.93
2019-02-06T14:06:48.337Z,13.13
2019-02-06T14:09:22.732Z,10.53
2019-02-06T14:11:43.275Z,11.63
2019-02-06T14:14:11.515Z,12.43
2019-02-06T14:16:38.973Z,10.80
2019-02-06T14:19:06.447Z,13.10
2019-02-06T14:21:33.899Z,15.87
2019-02-06T14:24:02.328Z,8.93
2019-02-06T14:26:30.710Z,12.73
2019-02-06T14:32:27.091Z,14.98
2019-02-06T14:35:02.119Z,13.33
2019-02-06T14:37:33.455Z,13.53
2019-02-06T14:40:05.783Z,10.07
2019-02-06T14:42:45.179Z,13.93
2019-02-06T14:45:14.311Z,9.23
2019-02-06T14:47:45.403Z,10.80
2019-02-06T14:53:14.530Z,13.65
2019-02-06T14:55:53.709Z,10.43
2019-02-06T14:58:29.729Z,10.37
2019-02-06T15:01:12.969Z,11.50
2019-02-06T15:03:40.541Z,10.00
2019-02-06T15:06:17.720Z,9.80
2019-02-06T15:08:53.989Z,8.13
2019-02-06T15:11:23.249Z,8.73
2019-02-06T15:13:55.300Z,7.33
2019-02-06T15:16:27.325Z,7.97
2019-02-06T15:19:04.616Z,7.80
2019-02-06T15:21:33.677Z,7.83
2019-02-06T15:24:12.229Z,8.50
2019-02-06T15:26:45.721Z,7.67
2019-02-06T15:29:15.927Z,7.17
2019-02-06T15:31:48.673Z,7.77
2019-02-06T15:34:21.833Z,8.20
2019-02-06T15:37:01.444Z,6.67
2019-02-06T15:42:45.490Z,9.80
2019-02-06T15:48:32.602Z,9.82
2019-02-06T15:54:14.504Z,9.45
2019-02-06T15:56:51.806Z,7.43
2019-02-06T15:59:39.754Z,6.67
2019-02-06T16:02:14.462Z,6.80
2019-02-06T16:04:55.016Z,8.00
2019-02-06T16:07:38.114Z,7.50
2019-02-06T16:10:28.870Z,6.93
2019-02-06T16:13:18.936Z,5.67
2019-02-06T16:16:02.922Z,5.13
2019-02-06T16:18:31.973Z,5.70
2019-02-06T16:21:01.253Z,6.17
2019-02-06T16:23:52.329Z,5.83
2019-02-06T16:26:28.497Z,5.03
2019-02-06T16:29:01.816Z,6.03
2019-02-06T16:31:31.698Z,6.40
2019-02-06T16:37:19.122Z,7.82
2019-02-06T16:39:52.627Z,7.60
2019-02-06T16:42:32.879Z,11.10
2019-02-06T16:45:02.800Z,7.23
2019-02-06T16:47:45.251Z,8.23
2019-02-06T16:50:08.125Z,6.00
2019-02-06T16:52:57.323Z,6.43
2019-02-06T16:58:53.337Z,10.30
2019-02-06T17:01:29.283Z,7.67
2019-02-06T17:04:17.519Z,8.20
2019-02-06T17:07:03.549Z,7.37
2019-02-06T17:09:36.806Z,8.30
2019-02-06T17:12:21.585Z,8.30
2019-02-06T17:15:02.559Z,7.50
2019-02-06T17:17:33.476Z,8.20
2019-02-06T17:20:08.410Z,10.23
2019-02-06T17:22:54.641Z,8.03
2019-02-06T17:25:30.992Z,7.07
2019-02-06T17:28:01.016Z,8.40
2019-02-06T17:30:33.141Z,8.50
2019-02-06T17:33:04.010Z,8.23
2019-02-06T17:35:50.977Z,8.97
2019-02-06T17:38:26.025Z,9.17
2019-02-06T17:41:12.208Z,10.07
2019-02-06T17:46:40.580Z,11.45
2019-02-06T17:49:23.814Z,10.37
2019-02-06T17:52:03.296Z,8.17
2019-02-06T17:54:36.033Z,6.90
2019-02-06T17:57:03.997Z,8.65
2019-02-06T17:59:31.570Z,7.53
2019-02-06T18:01:59.141Z,7.07
2019-02-06T18:04:26.606Z,6.57
2019-02-06T18:06:54.172Z,9.37
2019-02-06T18:09:21.679Z,5.73
2019-02-06T18:11:49.136Z,7.27
2019-02-06T18:14:16.653Z,7.07
2019-02-06T18:16:45.616Z,6.67
2019-02-06T18:19:13.105Z,8.10
2019-02-06T18:21:40.581Z,8.23
2019-02-06T18:24:08.837Z,8.03
2019-02-06T18:26:36.302Z,6.87
2019-02-06T18:29:04.567Z,6.60
2019-02-06T18:31:32.035Z,8.03
2019-02-06T18:33:59.514Z,5.63
2019-02-06T18:36:26.977Z,10.07
2019-02-06T18:38:54.456Z,6.63
2019-02-06T18:41:21.997Z,7.93
2019-02-06T18:43:50.289Z,6.53
2019-02-06T18:46:18.632Z,6.03
2019-02-06T18:48:46.070Z,7.43
2019-02-06T18:51:13.603Z,7.22
2019-02-06T18:53:41.857Z,9.37
2019-02-06T18:59:11.437Z,8.43
2019-02-06T19:01:39.570Z,7.90
2019-02-06T19:07:10.260Z,8.88
2019-02-06T19:09:37.696Z,7.60
2019-02-06T19:12:05.182Z,9.50
2019-02-06T19:14:32.628Z,8.57
2019-02-06T19:17:01.836Z,9.37
2019-02-06T19:19:29.452Z,8.23
2019-02-06T19:21:56.918Z,9.07
2019-02-06T19:24:24.371Z,7.53
2019-02-06T19:26:51.825Z,10.60
2019-02-06T19:29:19.295Z,9.60
2019-02-06T19:31:46.751Z,9.93
2019-02-06T19:34:14.231Z,6.62
2019-02-06T19:36:41.690Z,8.83
2019-02-06T19:39:09.138Z,10.00
2019-02-06T19:41:36.591Z,10.13
2019-02-06T19:44:04.840Z,9.53
2019-02-06T19:46:32.304Z,9.10
2019-02-06T19:48:59.751Z,10.57
2019-02-06T19:51:27.230Z,11.23
2019-02-06T19:53:54.693Z,11.33
2019-02-06T19:56:22.145Z,13.87
2019-02-06T19:58:49.616Z,10.83
2019-02-06T20:01:17.066Z,9.70
2019-02-06T20:03:44.538Z,10.33
2019-02-06T20:06:12.002Z,8.30
2019-02-06T20:08:39.459Z,10.47
2019-02-06T20:11:06.924Z,11.43
2019-02-06T20:13:34.405Z,13.73
2019-02-06T20:16:01.888Z,11.47
2019-02-06T20:18:30.110Z,13.23
2019-02-06T20:20:57.564Z,13.70
2019-02-06T20:23:25.060Z,13.10
2019-02-06T20:25:52.517Z,13.53
2019-02-06T20:28:20.022Z,16.23
2019-02-06T20:30:48.262Z,12.07
2019-02-06T20:33:15.725Z,12.67
2019-02-06T20:35:43.187Z,14.57
2019-02-06T20:38:10.694Z,15.13
2019-02-06T20:40:39.737Z,14.07
2019-02-06T20:43:07.189Z,11.97
2019-02-06T20:45:34.639Z,13.93
2019-02-06T20:48:02.123Z,19.10
2019-02-06T20:50:37.056Z,14.30
2019-02-06T20:53:04.507Z,14.73
2019-02-06T20:55:31.961Z,14.37
2019-02-06T20:57:59.421Z,14.00
2019-02-06T21:00:31.422Z,12.40
2019-02-06T21:02:58.902Z,15.97
2019-02-06T21:05:26.349Z,15.80
2019-02-06T21:07:53.814Z,15.23
2019-02-06T21:10:21.309Z,15.43
2019-02-06T21:12:49.529Z,15.03
2019-02-06T21:15:16.985Z,14.93
2019-02-06T21:17:44.428Z,15.33
2019-02-06T21:20:14.391Z,15.10
2019-02-06T21:22:41.863Z,16.83
2019-02-06T21:25:09.690Z,17.17
2019-02-06T21:27:36.790Z,18.30
2019-02-06T21:30:06.925Z,19.37
2019-02-06T21:32:34.499Z,15.83
2019-02-06T21:35:01.963Z,19.90
2019-02-06T21:37:30.189Z,19.63
2019-02-06T21:39:57.653Z,16.93
2019-02-06T21:42:25.121Z,19.90
2019-02-06T21:44:52.593Z,17.00
2019-02-06T21:47:20.059Z,20.47
2019-02-06T21:49:47.540Z,22.83
2019-02-06T21:52:14.993Z,15.37
2019-02-06T21:54:42.480Z,21.50
2019-02-06T21:57:09.964Z,19.07
2019-02-06T21:59:38.195Z,18.83
2019-02-06T22:02:05.652Z,16.97
2019-02-06T22:04:33.120Z,17.83
2019-02-06T22:07:00.577Z,15.33
2019-02-06T22:09:28.067Z,15.87
2019-02-06T22:11:55.535Z,15.27
2019-02-06T22:14:22.977Z,14.27
2019-02-06T22:16:50.426Z,16.87
2019-02-06T22:19:17.920Z,18.67
2019-02-06T22:21:45.387Z,14.60
2019-02-06T22:24:12.853Z,13.70
2019-02-06T22:26:40.299Z,12.93
2019-02-06T22:29:07.770Z,16.07
2019-02-06T22:31:35.237Z,14.67
2019-02-06T22:34:03.627Z,14.13
2019-02-06T22:36:31.085Z,11.43
2019-02-06T22:38:58.546Z,14.70
2019-02-06T22:41:26.065Z,12.53
2019-02-06T22:43:53.535Z,12.63
2019-02-06T22:46:20.983Z,13.43
2019-02-06T22:48:48.435Z,12.03
2019-02-06T22:51:16.458Z,13.50
2019-02-06T22:53:43.394Z,12.00
2019-02-06T22:56:10.886Z,14.70
2019-02-06T22:58:38.360Z,11.57
2019-02-06T23:01:06.589Z,9.90
2019-02-06T23:03:34.052Z,14.17
2019-02-06T23:06:01.523Z,13.00
2019-02-06T23:08:29.000Z,12.93
2019-02-06T23:10:58.323Z,13.93
2019-02-06T23:13:25.789Z,10.67
2019-02-06T23:15:53.276Z,12.10
2019-02-06T23:18:21.488Z,13.47
2019-02-06T23:20:48.959Z,14.10
2019-02-06T23:23:16.420Z,13.33
2019-02-06T23:25:43.877Z,13.37
2019-02-06T23:28:11.352Z,13.27
2019-02-06T23:30:38.808Z,11.70
2019-02-06T23:33:06.274Z,10.03
2019-02-06T23:35:33.759Z,13.60
2019-02-06T23:38:01.230Z,13.03
2019-02-06T23:40:28.683Z,15.53
2019-02-06T23:42:56.134Z,14.13
2019-02-06T23:45:23.609Z,13.30
2019-02-06T23:47:51.066Z,13.87
2019-02-06T23:50:18.526Z,13.90
2019-02-06T23:52:45.989Z,13.73
2019-02-06T23:55:13.466Z,14.37
2019-02-06T23:57:40.935Z,15.60
